Harlowton, Montana
Current Conditions -  °F | °C
As of 9:54 PM on Wednesday 26 Nov 2014 (Local Time) from KLWT Reporting Station
Overcast Overcast  
Wind Chill: 21°   Ceiling: 9000
Heat Index: 30°   Visibility: 10mi
Dew Point: 25°   Wind: 12mph
Humidity: 82%   Direction: 120°ESE
Pressure: 30.02"   Gusts: NA
Location:  46.44°N, 109.83°W
Report Text: KLWT 270454Z AUTO 12010KT 10SM OVC090 M01/M04 A3002 RMK AO2 SLP198 T10111039
Loading
Personal Weather Stations






























Interactive Weather Map New forecast layout! Learn more

10-Day Weather Forecast

Advertisements
Track Severe Weather on mobile